Time;durP1;ratioP1;P1;durP2;ratioP2;P2;SDS_P1;SDS_P2;PMS_P1;PMS_P2;Temp;Humidity;BMP_temperature;BMP_pressure;BME280_temperature;BME280_humidity;BME280_pressure;Samples;Min_cycle;Max_cycle;Signal;HPM_P1;HPM_P2
2024/02/10 00:01:07;;;;;;;16.42;14.23;;;8.70;99.90;;;9.14;100.00;95341.28;10355619;28;20226;-65
2024/02/10 00:06:15;;;;;;;19.45;16.38;;;8.60;99.90;;;9.17;100.00;95351.53;10354571;28;20238;-65
2024/02/10 00:11:18;;;;;;;21.92;16.15;;;8.60;99.90;;;9.24;100.00;95353.38;10356264;28;20231;-65
2024/02/10 00:16:22;;;;;;;34.63;14.15;;;8.70;99.90;;;9.12;100.00;95348.03;10357911;28;20253;-65
2024/02/10 00:21:29;;;;;;;14.38;12.85;;;8.60;99.90;;;9.11;100.00;95353.94;10366014;28;20262;-65
2024/02/10 00:26:32;;;;;;;17.48;14.73;;;8.60;99.90;;;9.03;100.00;95341.88;10346836;28;20233;-65
2024/02/10 00:31:39;;;;;;;15.88;13.73;;;8.60;99.90;;;9.18;100.00;95358.34;10363126;28;20321;-65
2024/02/10 00:36:42;;;;;;;20.42;14.68;;;8.60;99.90;;;9.22;100.00;95347.41;10362801;28;20233;-64
2024/02/10 00:41:45;;;;;;;15.02;13.40;;;8.60;99.90;;;9.16;100.00;95349.81;10362833;28;20226;-65
2024/02/10 00:46:50;;;;;;;15.75;14.15;;;8.60;99.90;;;9.15;100.00;95330.25;10359113;28;20230;-65
2024/02/10 00:51:55;;;;;;;15.45;13.95;;;8.60;99.90;;;9.19;100.00;95357.53;10361181;28;20313;-64
2024/02/10 00:56:58;;;;;;;20.95;15.20;;;8.60;99.90;;;9.10;100.00;95357.31;10359843;28;20254;-65
2024/02/10 01:02:05;;;;;;;16.20;14.45;;;8.50;99.90;;;9.10;100.00;95357.31;10363469;28;20232;-65
2024/02/10 01:07:08;;;;;;;16.38;14.55;;;8.50;99.90;;;9.08;100.00;95341.16;10353862;28;20223;-65
2024/02/10 01:12:11;;;;;;;15.10;13.57;;;8.50;99.90;;;9.05;100.00;95341.09;10319575;28;20219;-65
2024/02/10 01:17:16;;;;;;;16.52;14.48;;;8.50;99.90;;;9.05;100.00;95341.09;10362137;28;20241;-65
2024/02/10 01:22:25;;;;;;;15.65;13.98;;;8.50;99.90;;;9.09;100.00;95338.63;10348173;28;20227;-65
2024/02/10 01:27:29;;;;;;;14.27;12.70;;;8.50;99.90;;;9.08;100.00;95336.06;10362718;28;20285;-65
2024/02/10 01:32:33;;;;;;;17.92;13.98;;;8.50;99.90;;;9.11;100.00;95339.53;10363081;28;20229;-64
2024/02/10 01:37:38;;;;;;;15.73;13.63;;;8.50;99.90;;;9.03;100.00;95339.34;10348615;28;20246;-65
2024/02/10 01:42:44;;;;;;;13.55;12.15;;;8.40;99.90;;;9.01;100.00;95340.13;10364852;28;20808;-64
2024/02/10 01:47:49;;;;;;;14.90;12.63;;;8.40;99.90;;;8.97;100.00;95339.22;10350958;28;20289;-65
2024/02/10 01:52:54;;;;;;;17.50;14.25;;;8.40;99.90;;;9.01;100.00;95343.56;10345592;28;20261;-65
2024/02/10 01:58:05;;;;;;;21.73;15.60;;;8.50;99.90;;;9.06;100.00;95337.69;10361017;28;20735;-65
2024/02/10 02:03:10;;;;;;;21.00;17.83;;;8.50;99.90;;;9.07;100.00;95334.31;10356701;28;20226;-65
2024/02/10 02:08:17;;;;;;;20.23;17.30;;;8.50;99.90;;;9.06;100.00;95327.50;10356271;28;20230;-65
2024/02/10 02:13:22;;;;;;;21.35;17.85;;;8.60;99.90;;;9.07;100.00;95319.91;10358661;28;20657;-65
2024/02/10 02:18:27;;;;;;;20.88;17.30;;;8.60;99.90;;;9.16;100.00;95329.44;10363318;28;20237;-65
2024/02/10 02:23:32;;;;;;;29.88;16.73;;;8.60;99.90;;;9.13;100.00;95331.88;10362357;28;20315;-64
2024/02/10 02:28:35;;;;;;;26.27;17.13;;;8.60;99.90;;;9.20;100.00;95326.13;10355569;28;20225;-65
2024/02/10 02:33:38;;;;;;;21.55;16.55;;;8.60;99.90;;;9.18;100.00;95323.50;10362291;28;20231;-65
2024/02/10 02:38:43;;;;;;;20.63;15.90;;;8.60;99.90;;;9.11;100.00;95315.72;10352747;28;20229;-65
2024/02/10 02:43:47;;;;;;;21.98;17.77;;;8.50;99.90;;;8.94;100.00;95313.66;10357543;28;20242;-65
2024/02/10 02:48:52;;;;;;;21.35;17.80;;;8.40;99.90;;;8.95;100.00;95292.44;10354855;28;20281;-64
2024/02/10 02:53:57;;;;;;;24.30;19.15;;;8.50;99.90;;;8.99;100.00;95275.56;10354886;28;20739;-64
2024/02/10 02:59:00;;;;;;;26.52;20.13;;;8.50;99.90;;;9.02;100.00;95265.44;10358373;28;20604;-64
2024/02/10 03:04:04;;;;;;;25.15;19.50;;;8.50;99.90;;;9.08;100.00;95267.25;10349977;28;20241;-65
2024/02/10 03:09:09;;;;;;;24.25;17.88;;;8.60;99.90;;;9.25;100.00;95266.75;10362764;28;20229;-64
2024/02/10 03:14:12;;;;;;;26.98;19.88;;;8.60;99.90;;;9.11;100.00;95265.63;10350764;28;20713;-64
2024/02/10 03:19:15;;;;;;;38.42;25.05;;;8.50;99.90;;;8.99;100.00;95268.78;10352408;28;20419;-64
2024/02/10 03:24:20;;;;;;;39.13;24.88;;;8.50;99.90;;;9.06;100.00;95262.13;10350943;28;20230;-65
2024/02/10 03:29:23;;;;;;;46.88;28.75;;;8.50;99.90;;;9.17;100.00;95262.34;10354753;28;20229;-65
2024/02/10 03:34:26;;;;;;;44.58;27.05;;;8.60;99.90;;;9.24;100.00;95251.44;10351431;28;20237;-65
2024/02/10 03:39:31;;;;;;;41.65;26.13;;;8.70;99.90;;;9.37;100.00;95247.44;10348855;28;20218;-65
2024/02/10 03:44:34;;;;;;;42.63;25.42;;;8.70;99.90;;;9.15;100.00;95224.06;10316471;28;20233;-65
2024/02/10 03:49:37;;;;;;;46.72;26.95;;;8.60;99.90;;;9.18;100.00;95221.59;10308850;28;20258;-63
2024/02/10 03:54:42;;;;;;;52.80;29.38;;;8.70;99.90;;;9.16;100.00;95217.31;10324640;28;20254;-64
2024/02/10 03:59:45;;;;;;;49.47;28.88;;;8.60;99.90;;;9.23;100.00;95221.69;10339939;28;20226;-64
2024/02/10 04:04:50;;;;;;;39.83;25.58;;;8.80;99.90;;;9.39;100.00;95221.16;10365189;28;20233;-65
2024/02/10 04:09:55;;;;;;;45.55;28.58;;;8.80;99.90;;;9.29;100.00;95198.84;10357211;28;20230;-63
2024/02/10 04:15:00;;;;;;;42.80;26.63;;;8.70;99.90;;;9.27;100.00;95190.34;10351969;28;20301;-64
2024/02/10 04:20:03;;;;;;;41.22;26.35;;;8.70;99.90;;;9.29;100.00;95206.50;10357531;28;20285;-65
2024/02/10 04:25:09;;;;;;;32.13;23.38;;;8.70;99.90;;;9.32;100.00;95221.84;10349962;28;20223;-65
2024/02/10 04:30:13;;;;;;;32.30;22.58;;;8.70;99.90;;;9.31;100.00;95217.59;10348342;28;20230;-65
2024/02/10 04:35:17;;;;;;;35.28;23.92;;;8.70;99.90;;;9.27;100.00;95214.94;10352360;28;20242;-65
2024/02/10 04:40:26;;;;;;;38.83;24.63;;;8.70;99.90;;;9.27;100.00;95215.84;10329067;28;20241;-64
2024/02/10 04:45:30;;;;;;;36.00;24.17;;;8.70;99.90;;;9.28;100.00;95222.63;10341895;28;20230;-64
2024/02/10 04:50:34;;;;;;;36.72;24.10;;;8.70;99.90;;;9.28;100.00;95227.72;10358687;28;20230;-65
2024/02/10 04:55:41;;;;;;;39.35;25.65;;;8.70;99.90;;;9.19;100.00;95217.38;10362724;28;20234;-64
2024/02/10 05:00:44;;;;;;;35.50;23.98;;;8.60;99.90;;;9.22;100.00;95218.28;10363106;28;20226;-64
2024/02/10 05:05:47;;;;;;;30.70;21.67;;;8.60;99.90;;;9.27;100.00;95220.94;10356863;28;20245;-65
2024/02/10 05:10:52;;;;;;;34.50;22.48;;;8.70;99.90;;;9.28;100.00;95221.78;10352325;28;20731;-64
2024/02/10 05:15:55;;;;;;;31.83;22.85;;;8.70;99.90;;;9.22;100.00;95213.19;10360601;28;20257;-64
2024/02/10 05:20:58;;;;;;;36.67;24.42;;;8.60;99.90;;;9.28;100.00;95207.34;10360356;28;20237;-65
2024/02/10 05:26:03;;;;;;;34.97;22.67;;;8.70;99.90;;;9.25;100.00;95207.28;10356099;28;20617;-64
2024/02/10 05:31:07;;;;;;;34.85;22.77;;;8.70;99.90;;;9.23;100.00;95209.78;10312285;28;20233;-64
2024/02/10 05:36:10;;;;;;;33.53;22.30;;;8.60;99.90;;;9.17;100.00;95203.72;10310004;28;20235;-64
2024/02/10 05:41:15;;;;;;;42.83;27.52;;;8.60;99.90;;;9.24;100.00;95192.81;10337444;28;20308;-64
2024/02/10 05:46:18;;;;;;;47.20;28.67;;;8.60;99.90;;;9.08;100.00;95193.38;10352456;28;20234;-64
2024/02/10 05:51:23;;;;;;;39.67;24.45;;;8.50;99.90;;;9.07;100.00;95199.28;10357174;28;20337;-65
2024/02/10 05:56:29;;;;;;;41.70;26.98;;;8.40;99.90;;;9.01;100.00;95190.72;10351584;28;20559;-64
2024/02/10 06:01:32;;;;;;;41.67;26.30;;;8.40;99.90;;;8.97;100.00;95185.50;10355910;28;20233;-64
2024/02/10 06:06:36;;;;;;;43.95;25.63;;;8.40;99.90;;;8.93;100.00;95192.25;10360963;28;20372;-65
2024/02/10 06:11:41;;;;;;;45.00;26.20;;;8.40;99.90;;;8.97;100.00;95195.69;10361490;28;20253;-65
2024/02/10 06:16:44;;;;;;;38.97;24.38;;;8.40;99.90;;;8.92;100.00;95193.03;10358262;28;20223;-65
2024/02/10 06:21:47;;;;;;;41.28;24.80;;;8.30;99.90;;;8.99;100.00;95199.16;10360218;28;20313;-64
2024/02/10 06:26:54;;;;;;;39.80;23.38;;;8.40;99.90;;;9.11;100.00;95213.81;10351918;28;20318;-65
2024/02/10 06:31:59;;;;;;;42.05;25.77;;;8.40;99.90;;;8.93;100.00;95214.31;10350236;28;20791;-65
2024/02/10 06:37:02;;;;;;;40.72;26.05;;;8.30;99.90;;;8.84;100.00;95217.50;10332596;28;20230;-65
2024/02/10 06:42:08;;;;;;;35.97;23.58;;;8.20;99.90;;;8.78;100.00;95220.81;10350932;28;20226;-65
2024/02/10 06:47:11;;;;;;;37.60;24.75;;;8.20;99.90;;;8.56;100.00;95222.03;10355567;28;20240;-65
2024/02/10 06:52:16;;;;;;;38.13;24.50;;;8.10;99.90;;;8.59;100.00;95217.84;10353008;28;20226;-65
2024/02/10 06:57:21;;;;;;;40.25;27.50;;;8.10;99.90;;;8.76;100.00;95221.59;10354133;28;20254;-65
2024/02/10 07:02:24;;;;;;;39.83;27.10;;;8.20;99.90;;;8.58;100.00;95219.50;10351131;28;20629;-65
2024/02/10 07:07:28;;;;;;;38.13;26.85;;;8.10;99.90;;;8.47;100.00;95231.13;10352378;28;20238;-65
2024/02/10 07:12:33;;;;;;;43.55;28.30;;;8.10;99.90;;;8.55;100.00;95227.06;10354764;28;20218;-65
2024/02/10 07:17:36;;;;;;;33.88;25.27;;;8.10;99.90;;;8.62;100.00;95228.09;10345555;28;20230;-65
2024/02/10 07:22:40;;;;;;;34.08;25.35;;;8.10;99.90;;;8.69;100.00;95233.31;10349334;28;20714;-65
2024/02/10 07:27:46;;;;;;;31.98;23.70;;;8.20;99.90;;;8.76;100.00;95236.88;10352506;28;20911;-64
2024/02/10 07:32:51;;;;;;;36.05;24.75;;;8.30;99.90;;;8.83;100.00;95227.66;10336545;28;20713;-64
2024/02/10 07:37:54;;;;;;;34.17;25.08;;;8.30;99.90;;;8.86;100.00;95213.31;10345169;28;20234;-64
2024/02/10 07:42:58;;;;;;;28.63;21.83;;;8.30;99.90;;;8.90;100.00;95215.09;10329428;28;20312;-63
2024/02/10 07:48:03;;;;;;;32.05;23.38;;;8.40;99.90;;;8.98;100.00;95220.34;10348828;28;20377;-65
2024/02/10 07:53:12;;;;;;;30.58;21.90;;;8.40;99.90;;;9.02;100.00;95219.59;10350145;28;20385;-64
2024/02/10 07:58:17;;;;;;;28.88;21.70;;;8.40;99.90;;;9.11;100.00;95211.25;10344949;28;20246;-64
2024/02/10 08:03:23;;;;;;;30.40;22.15;;;8.50;99.90;;;9.11;100.00;95211.25;10346293;28;20229;-64
2024/02/10 08:08:26;;;;;;;27.63;21.95;;;8.50;99.90;;;9.08;100.00;95213.75;10347452;28;20325;-63
2024/02/10 08:13:32;;;;;;;28.67;22.55;;;8.40;99.90;;;9.12;100.00;95195.97;10354537;28;20605;-65
2024/02/10 08:18:37;;;;;;;31.40;25.33;;;8.50;99.90;;;9.13;100.00;95197.72;10349132;28;20254;-64
2024/02/10 08:23:42;;;;;;;28.98;23.05;;;8.50;99.90;;;9.13;100.00;95190.09;10346937;28;20719;-64
2024/02/10 08:28:50;;;;;;;31.60;24.05;;;8.40;99.90;;;9.12;100.00;95187.50;10352821;28;20323;-65
2024/02/10 08:33:54;;;;;;;32.38;25.80;;;8.50;99.90;;;8.92;100.00;95187.94;10353528;28;20302;-64
2024/02/10 08:39:03;;;;;;;32.88;25.70;;;8.40;99.90;;;8.89;100.00;95177.72;10314117;28;20884;-62
2024/02/10 08:44:08;;;;;;;31.80;25.00;;;8.40;99.90;;;9.06;100.00;95179.72;10316997;28;20340;-65
2024/02/10 08:49:14;;;;;;;33.05;25.27;;;8.40;99.90;;;9.05;100.00;95183.97;10320413;28;20756;-64
2024/02/10 08:54:18;;;;;;;33.55;26.83;;;8.40;99.90;;;9.03;100.00;95190.72;10363879;28;20666;-63
2024/02/10 08:59:22;;;;;;;32.67;26.92;;;8.40;99.90;;;9.14;100.00;95179.03;10345348;28;20231;-64
2024/02/10 09:04:25;;;;;;;32.00;24.40;;;8.50;99.90;;;9.12;100.00;95180.69;10342250;28;20580;-64
2024/02/10 09:14:42;;;;;;;35.95;26.83;;;8.60;99.90;;;9.25;100.00;95182.66;10187171;28;20221;-64
2024/02/10 09:19:45;;;;;;;31.73;26.92;;;8.60;99.90;;;9.27;100.00;95190.34;10190857;28;20283;-64
2024/02/10 09:24:51;;;;;;;31.48;25.95;;;8.70;99.90;;;9.28;100.00;95196.28;10272750;28;20228;-63
2024/02/10 09:30:00;;;;;;;31.42;24.95;;;8.70;99.90;;;9.28;100.00;95186.97;10271961;28;20780;-63
2024/02/10 09:35:04;;;;;;;30.98;24.42;;;8.70;99.90;;;9.39;100.00;95180.38;10271358;28;20220;-63
2024/02/10 09:40:11;;;;;;;29.33;24.48;;;8.80;99.90;;;9.80;100.00;95179.34;10265502;28;20604;-64
2024/02/10 09:45:17;;;;;;;27.35;24.13;;;9.10;99.90;;;9.51;100.00;95189.91;10266027;28;20362;-64
2024/02/10 09:50:21;;;;;;;27.30;23.20;;;9.00;99.90;;;9.63;100.00;95169.72;10271769;28;20227;-63
2024/02/10 09:55:40;;;;;;;24.77;21.65;;;9.10;99.90;;;9.49;100.00;95181.38;10273225;28;20233;-62
2024/02/10 10:00:44;;;;;;;26.15;22.48;;;9.00;99.90;;;9.75;100.00;95178.41;10265991;28;20223;-63
2024/02/10 10:05:49;;;;;;;28.48;24.67;;;9.20;99.90;;;9.84;100.00;95171.78;10268296;28;20714;-63
2024/02/10 10:10:52;;;;;;;27.40;23.27;;;9.20;99.90;;;9.74;100.00;95167.34;10268433;28;20235;-64
2024/02/10 10:15:58;;;;;;;28.70;24.42;;;9.20;99.90;;;9.67;100.00;95152.78;10274654;28;20555;-63
2024/02/10 10:21:04;;;;;;;30.92;25.40;;;9.20;99.90;;;9.68;100.00;95152.81;10268998;28;20240;-63
2024/02/10 10:26:09;;;;;;;27.27;22.17;;;9.10;99.90;;;9.80;100.00;95152.16;10269447;28;20231;-64
2024/02/10 10:31:15;;;;;;;30.33;24.95;;;9.30;99.90;;;9.86;100.00;95152.25;10276165;28;20237;-64
2024/02/10 10:36:21;;;;;;;27.52;23.20;;;9.30;99.90;;;9.92;100.00;95144.69;10280240;28;20228;-64
2024/02/10 10:41:24;;;;;;;25.95;22.25;;;9.40;99.90;;;9.97;100.00;95143.91;10276858;28;20264;-63
2024/02/10 10:46:30;;;;;;;25.80;20.83;;;9.40;99.90;;;10.04;100.00;95130.38;10272090;28;20238;-64
2024/02/10 10:51:46;;;;;;;26.77;23.70;;;9.50;99.90;;;10.14;100.00;95116.94;10280176;28;20278;-63
2024/02/10 10:56:49;;;;;;;24.08;21.52;;;9.60;99.90;;;10.19;100.00;95088.91;10279857;28;20639;-63
2024/02/10 11:01:54;;;;;;;23.50;20.25;;;9.60;99.90;;;10.25;100.00;95082.22;10280651;28;20231;-63
2024/02/10 11:06:57;;;;;;;24.98;21.20;;;9.60;99.90;;;10.34;100.00;95071.28;10281681;28;20236;-64
2024/02/10 11:12:04;;;;;;;23.13;19.77;;;9.70;99.90;;;10.33;100.00;95067.00;10281205;28;20608;-64
2024/02/10 11:17:13;;;;;;;23.88;20.02;;;9.70;99.90;;;10.35;100.00;95055.13;10280919;28;20226;-64
2024/02/10 11:22:26;;;;;;;24.00;20.00;;;9.70;99.90;;;10.38;100.00;95040.69;10277738;28;20247;-64
2024/02/10 11:27:30;;;;;;;24.83;20.40;;;9.80;99.90;;;10.43;100.00;95027.13;10281069;28;20793;-63
2024/02/10 11:32:36;;;;;;;24.65;21.58;;;9.70;99.90;;;10.49;100.00;95004.22;10276395;28;20982;-64
2024/02/10 11:37:39;;;;;;;33.97;26.75;;;9.80;99.90;;;10.63;100.00;94994.16;10279864;28;20988;-63
2024/02/10 11:42:43;;;;;;;30.00;25.02;;;9.90;99.90;;;10.46;100.00;94986.31;10284374;28;20230;-63
2024/02/10 11:47:53;;;;;;;29.92;23.83;;;9.80;99.90;;;10.51;100.00;94979.56;10288956;28;20235;-63
2024/02/10 11:52:59;;;;;;;24.10;21.25;;;9.80;99.90;;;10.83;100.00;94983.28;10288887;28;20231;-64
2024/02/10 11:58:03;;;;;;;24.38;19.88;;;10.00;99.90;;;10.70;100.00;94975.47;10288378;28;20737;-65
2024/02/10 12:03:08;;;;;;;20.17;18.15;;;10.00;99.90;;;10.81;100.00;94982.41;10288016;28;20735;-63
2024/02/10 12:08:11;;;;;;;20.65;18.50;;;10.10;99.90;;;10.99;100.00;95014.13;10288619;28;20630;-64
2024/02/10 12:13:19;;;;;;;22.95;19.40;;;10.30;99.90;;;11.09;100.00;95010.78;10287775;28;20239;-63
2024/02/10 12:18:25;;;;;;;21.98;19.20;;;10.40;99.90;;;11.23;100.00;95004.06;10288255;28;20236;-63
2024/02/10 12:23:29;;;;;;;21.15;18.92;;;10.60;99.90;;;11.33;100.00;94989.69;10288312;28;20235;-63
2024/02/10 12:28:35;;;;;;;20.30;18.20;;;10.70;99.90;;;11.66;100.00;94976.25;10285859;28;20317;-63
2024/02/10 12:33:42;;;;;;;18.15;16.30;;;10.90;99.90;;;11.67;100.00;94970.28;10287210;28;20232;-64
2024/02/10 12:38:46;;;;;;;20.08;17.25;;;11.10;99.90;;;11.82;100.00;94955.88;10287188;28;20228;-64
2024/02/10 12:43:49;;;;;;;20.02;17.60;;;11.10;99.90;;;11.76;100.00;94948.16;10287015;28;20315;-64
2024/02/10 12:48:55;;;;;;;22.38;18.17;;;11.10;99.90;;;12.03;100.00;94942.34;10290627;28;20372;-65
2024/02/10 12:53:59;;;;;;;19.55;17.45;;;11.40;99.90;;;12.09;100.00;94944.94;10286584;28;20240;-64
2024/02/10 12:59:07;;;;;;;18.08;15.85;;;11.50;99.90;;;12.38;100.00;94929.66;10285930;28;20706;-64
2024/02/10 13:04:12;;;;;;;19.15;16.35;;;11.60;99.90;;;12.37;100.00;94918.56;10286768;28;20606;-66
2024/02/10 13:09:15;;;;;;;18.60;16.63;;;11.60;99.90;;;12.46;100.00;94912.59;10287119;28;20232;-65
2024/02/10 13:14:18;;;;;;;17.38;15.40;;;11.60;99.90;;;12.47;100.00;94914.28;10285010;28;20247;-66
2024/02/10 13:19:23;;;;;;;18.73;15.98;;;11.70;99.90;;;12.66;100.00;94901.53;10285968;28;20238;-65
2024/02/10 13:24:29;;;;;;;18.60;16.55;;;11.80;99.90;;;12.42;100.00;94890.41;10285179;28;20653;-65
2024/02/10 13:29:32;;;;;;;16.80;15.05;;;11.80;99.90;;;12.63;100.00;94892.97;10280963;28;20698;-65
2024/02/10 13:34:45;;;;;;;15.70;14.30;;;12.00;99.90;;;12.40;100.00;94872.44;10285035;28;20228;-63
2024/02/10 14:02:07;;;;;;;12.55;11.27;;;12.50;99.90;;;13.30;100.00;94847.66;10284168;28;20242;-64
2024/02/10 14:06:58;;;;;;;11.80;10.60;;;12.60;99.90;;;13.20;96.26;94841.69;10282724;28;20236;-65
2024/02/10 14:12:01;;;;;;;11.60;9.50;;;12.60;99.90;;;13.16;94.50;94836.53;10284224;28;20425;-63
2024/02/10 14:17:14;;;;;;;9.88;8.98;;;12.50;99.90;;;13.03;94.54;94831.44;10284908;28;20691;-65
2024/02/10 14:22:19;;;;;;;9.23;8.32;;;12.40;99.90;;;12.77;94.19;94830.63;10283419;28;20236;-65
2024/02/10 14:27:24;;;;;;;9.38;8.43;;;12.20;99.90;;;12.78;93.56;94828.03;10281240;28;20322;-64
2024/02/10 14:32:32;;;;;;;8.30;7.53;;;12.10;99.90;;;12.66;94.02;94824.66;10276010;28;20635;-64
2024/02/10 14:37:46;;;;;;;7.60;6.93;;;12.00;99.90;;;12.64;93.38;94829.75;10281477;28;20227;-65
2024/02/10 14:42:54;;;;;;;8.20;6.55;;;12.00;99.90;;;12.63;96.36;94823.78;10282218;28;20311;-64
2024/02/10 14:47:57;;;;;;;7.47;6.82;;;12.00;99.90;;;12.61;94.12;94810.13;10281715;28;20239;-64
2024/02/10 14:53:02;;;;;;;7.30;6.60;;;12.00;99.90;;;12.52;95.73;94810.13;10280962;28;21179;-64
2024/02/10 14:58:07;;;;;;;8.80;7.53;;;11.90;99.90;;;12.41;95.68;94811.81;10281125;28;20507;-66
2024/02/10 15:03:14;;;;;;;8.32;7.53;;;11.80;99.90;;;12.38;96.25;94816.94;10280877;28;20954;-64
2024/02/10 15:08:20;;;;;;;8.75;7.60;;;11.80;99.90;;;12.33;96.02;94809.28;10280984;28;20243;-63
2024/02/10 15:13:24;;;;;;;8.95;8.05;;;11.70;99.90;;;12.31;98.04;94815.25;10281041;28;20325;-65
2024/02/10 15:18:29;;;;;;;11.73;10.40;;;11.70;99.90;;;12.14;97.27;94822.91;10279883;28;20654;-65
2024/02/10 15:23:34;;;;;;;11.43;10.23;;;11.60;99.90;;;12.07;99.04;94806.66;10279591;28;20235;-65
2024/02/10 15:28:37;;;;;;;11.48;10.20;;;11.50;99.90;;;12.01;100.00;94809.22;10279536;28;20235;-65
2024/02/10 15:33:40;;;;;;;10.73;9.70;;;11.40;99.90;;;11.91;100.00;94804.94;10279928;28;20266;-65
2024/02/10 15:38:44;;;;;;;11.48;10.35;;;11.40;99.90;;;11.86;100.00;94793.84;10279967;28;21586;-65
2024/02/10 15:43:50;;;;;;;11.02;9.93;;;11.30;99.90;;;11.88;100.00;94789.59;10277718;28;21176;-65
2024/02/10 15:48:54;;;;;;;10.32;9.18;;;11.20;99.90;;;11.83;100.00;94793.81;10279119;28;20271;-65
2024/02/10 15:53:59;;;;;;;10.68;9.68;;;11.10;99.90;;;11.72;100.00;94792.06;10280093;28;20239;-65
2024/02/10 15:59:04;;;;;;;11.55;10.30;;;11.00;99.90;;;11.63;100.00;94802.28;10277746;28;20502;-65
2024/02/10 16:04:10;;;;;;;12.57;11.43;;;10.90;99.90;;;11.57;100.00;94799.69;10278161;28;20238;-65
2024/02/10 16:09:15;;;;;;;13.95;12.20;;;10.80;99.90;;;11.66;100.00;94799.72;10280242;28;20238;-65
2024/02/10 16:14:27;;;;;;;15.88;12.50;;;10.80;99.90;;;11.45;100.00;94792.00;10278781;28;20463;-65
2024/02/10 16:19:30;;;;;;;14.52;13.13;;;10.70;99.90;;;11.32;100.00;94803.00;10279489;28;20273;-65
2024/02/10 16:24:35;;;;;;;14.23;12.77;;;10.60;99.90;;;11.20;100.00;94804.66;10279430;28;20744;-65
2024/02/10 16:29:40;;;;;;;32.25;29.75;;;10.50;99.90;;;11.04;100.00;94813.06;10283394;28;20236;-65
2024/02/10 16:34:48;;;;;;;17.90;16.40;;;10.30;99.90;;;10.80;100.00;94804.41;10285779;28;20377;-65
2024/02/10 16:39:53;;;;;;;17.52;16.15;;;10.10;99.90;;;10.73;100.00;94802.69;10285772;28;20318;-64
2024/02/10 16:44:57;;;;;;;14.65;13.35;;;10.00;99.90;;;10.54;100.00;94811.91;10286278;28;20227;-66
2024/02/10 16:50:01;;;;;;;13.55;12.25;;;9.80;99.90;;;10.43;100.00;94815.22;10285978;28;21128;-65
2024/02/10 16:55:09;;;;;;;12.88;11.60;;;9.70;99.90;;;10.24;100.00;94819.28;10285043;28;20223;-65
2024/02/10 17:00:18;;;;;;;14.98;13.55;;;9.50;99.90;;;10.08;100.00;94818.28;10284679;28;20608;-66
2024/02/10 17:05:21;;;;;;;16.25;14.00;;;9.40;99.90;;;9.94;100.00;94823.25;10285144;28;20611;-65
2024/02/10 17:10:31;;;;;;;15.00;13.50;;;9.20;99.90;;;9.85;100.00;94823.16;10285039;28;20734;-66
2024/02/10 17:15:34;;;;;;;16.38;14.73;;;9.20;99.90;;;9.75;100.00;94829.84;10285298;28;20231;-65
2024/02/10 17:20:37;;;;;;;17.48;15.45;;;9.00;99.90;;;9.68;100.00;94831.47;10284470;28;20240;-65
2024/02/10 17:25:43;;;;;;;16.38;14.73;;;9.00;99.90;;;9.58;100.00;94839.00;10284954;28;20719;-63
2024/02/10 17:30:48;;;;;;;18.27;16.35;;;8.90;99.90;;;9.42;100.00;94854.13;10283911;28;20743;-65
2024/02/10 17:35:53;;;;;;;18.20;15.38;;;8.70;99.90;;;9.33;100.00;94856.56;10283695;28;20250;-65
2024/02/10 17:40:57;;;;;;;19.02;17.00;;;8.70;99.90;;;9.26;100.00;94867.50;10284137;28;20345;-65
2024/02/10 17:46:01;;;;;;;18.77;16.77;;;8.50;99.90;;;9.13;100.00;94874.13;10283725;28;20752;-66
2024/02/10 17:51:06;;;;;;;18.38;16.05;;;8.40;99.90;;;9.03;100.00;94867.19;10284481;28;20238;-64
2024/02/10 17:56:12;;;;;;;18.13;16.33;;;8.40;99.90;;;8.94;100.00;94873.00;10283216;28;20234;-66
2024/02/10 18:01:20;;;;;;;17.83;15.98;;;8.20;99.90;;;8.87;100.00;94878.84;10284685;28;20250;-65
2024/02/10 18:06:25;;;;;;;18.67;16.88;;;8.20;99.90;;;8.81;100.00;94873.63;10283752;28;20231;-65
2024/02/10 18:11:29;;;;;;;17.23;15.43;;;8.20;99.90;;;8.77;100.00;94872.75;10283551;28;20240;-65
2024/02/10 18:16:33;;;;;;;18.65;16.73;;;8.10;99.90;;;8.76;100.00;94888.00;10282852;28;20228;-64
2024/02/10 18:21:36;;;;;;;23.52;21.23;;;8.00;99.90;;;8.67;100.00;94890.38;10283943;28;20235;-65
2024/02/10 18:26:40;;;;;;;27.95;25.25;;;8.00;99.90;;;8.63;100.00;94894.59;10283072;28;20239;-65
2024/02/10 18:31:44;;;;;;;23.33;21.08;;;8.00;99.90;;;8.63;100.00;94892.03;10284107;28;20231;-65
2024/02/10 18:36:48;;;;;;;25.73;23.13;;;8.00;99.90;;;8.70;100.00;94892.97;10283977;28;20227;-65
2024/02/10 18:41:53;;;;;;;18.77;16.85;;;8.00;99.90;;;8.69;100.00;94893.81;10283475;28;20679;-66
2024/02/10 18:46:56;;;;;;;17.63;15.93;;;8.00;99.90;;;8.65;100.00;94892.94;10282201;28;20228;-66
2024/02/10 18:52:03;;;;;;;16.95;15.32;;;7.90;99.90;;;8.62;100.00;94892.03;10282931;28;20236;-66
2024/02/10 18:57:10;;;;;;;18.92;17.00;;;8.00;99.90;;;8.57;100.00;94890.25;10281594;28;20691;-66
2024/02/10 19:02:17;;;;;;;19.48;17.33;;;7.90;99.90;;;8.57;100.00;94894.50;10281450;28;20251;-66
2024/02/10 19:07:21;;;;;;;19.25;17.25;;;7.90;99.90;;;8.49;100.00;94891.81;10283001;28;20232;-66
2024/02/10 19:12:26;;;;;;;18.70;16.50;;;7.80;99.90;;;8.49;100.00;94909.63;10281938;28;20591;-65
2024/02/10 19:17:32;;;;;;;20.30;18.20;;;7.80;99.90;;;8.45;100.00;94910.41;10281568;28;20592;-66
2024/02/10 19:22:35;;;;;;;20.35;18.30;;;7.80;99.90;;;8.46;100.00;94916.34;10298613;28;20349;-64
2024/02/10 19:27:41;;;;;;;21.35;19.35;;;7.80;99.90;;;8.43;100.00;94931.56;10306002;28;20223;-64
2024/02/10 19:32:45;;;;;;;41.95;38.45;;;7.80;99.90;;;8.38;100.00;94928.91;10305281;28;20339;-64
2024/02/10 19:37:50;;;;;;;23.13;20.98;;;7.70;99.90;;;8.33;100.00;94921.22;10302995;28;20219;-64
2024/02/10 19:42:56;;;;;;;16.13;14.27;;;7.70;99.90;;;8.23;100.00;94933.72;10308793;28;20236;-65
2024/02/10 19:48:00;;;;;;;14.98;13.48;;;7.50;99.90;;;8.20;100.00;94938.75;10305674;28;20258;-64
2024/02/10 19:53:05;;;;;;;16.33;14.70;;;7.50;99.90;;;8.19;100.00;94953.16;10316041;28;20290;-64
2024/02/10 19:58:12;;;;;;;17.73;15.85;;;7.50;99.90;;;8.09;100.00;94957.22;10304128;28;20574;-64
2024/02/10 20:03:16;;;;;;;18.88;16.88;;;7.50;99.90;;;8.12;100.00;94962.34;10303524;28;20250;-64
2024/02/10 20:08:20;;;;;;;17.77;15.68;;;7.50;99.90;;;8.07;100.00;94960.56;10313582;28;20247;-64
2024/02/10 20:13:26;;;;;;;18.65;16.80;;;7.40;99.90;;;8.08;100.00;94960.59;10309480;28;20237;-65
2024/02/10 20:18:32;;;;;;;19.15;17.05;;;7.40;99.90;;;8.11;100.00;94954.72;10310172;28;20250;-64
2024/02/10 20:23:35;;;;;;;19.08;17.05;;;7.50;99.90;;;8.07;100.00;94973.28;10304988;28;20262;-64
2024/02/10 20:28:40;;;;;;;20.33;15.73;;;7.40;99.90;;;8.05;100.00;94975.78;10309423;28;20253;-65
2024/02/10 20:33:44;;;;;;;17.13;15.48;;;7.40;99.90;;;8.05;100.00;94985.97;10315901;28;20596;-64
2024/02/10 20:38:49;;;;;;;16.50;14.90;;;7.40;99.90;;;8.06;100.00;94986.81;10316264;28;20227;-65
2024/02/10 20:43:54;;;;;;;17.83;16.13;;;7.40;99.90;;;8.01;100.00;94984.22;10311269;28;20235;-66
2024/02/10 20:48:59;;;;;;;35.20;31.60;;;7.30;99.90;;;8.01;100.00;94988.41;10310362;28;20259;-66
2024/02/10 20:54:04;;;;;;;38.47;34.47;;;7.40;99.90;;;8.04;100.00;94994.44;10303119;28;20223;-64
2024/02/10 20:59:13;;;;;;;22.80;20.60;;;7.40;99.90;;;8.05;100.00;94993.59;10301534;28;20235;-65
2024/02/10 21:04:17;;;;;;;20.55;18.55;;;7.40;99.90;;;8.04;100.00;94999.53;10309583;28;20242;-65
2024/02/10 21:09:22;;;;;;;17.98;16.15;;;7.40;99.90;;;8.07;100.00;95003.81;10309905;28;20238;-67
2024/02/10 21:14:27;;;;;;;18.83;16.85;;;7.40;99.90;;;8.05;100.00;95006.31;10305716;28;20334;-65
2024/02/10 21:19:30;;;;;;;15.52;13.93;;;7.40;99.90;;;8.04;100.00;95019.88;10303217;28;20753;-64